• Join FlightAware (Why Join?)
  • Login
  • US Flag 
01:08AM EDT


 

Airport Tracker/Info


-or-


 

Live Flight TrackerFlight Track Log ✈ SWA2697 ✈ 23-Apr-2013 ✈ KLAS - KONT

Flight Track Log - Related Links

Times and Time Zones

All times are in EDT time to prevent confusion due to time zone crossing. See the SWA2697 flight status page for this flight to view local times or setup timezone preferences in your user account.

Time Position Orientation Groundspeed Altitude Reporting Facility
EDT Latitude Longitude Course Direction KTS MPH feet Rate Location/Type
11:50AM 36.0772 -115.0347 89° East 239 275 5,600  Level Los Angeles Center
11:51AM 36.0761 -114.9917 92° East 242 278 7,500 4,080 Climbing Los Angeles Center
11:51AM 36.0506 -114.9425 123° Southeast 294 338 9,800 3,180 Climbing Los Angeles Center
11:52AM 36.0167 -114.9258 158° South 305 351 10,800 2,640 Climbing Los Angeles Center
11:52AM 35.9492 -114.9231 178° South 352 405 12,800 2,880 Climbing Los Angeles Center
11:53AM 35.9258 -114.9453 218° Southwest 347 399 13,800 3,120 Climbing Los Angeles Center
11:54AM 35.8547 -115.0322 225° Southwest 355 409 17,400 3,240 Climbing Los Angeles Center
11:55AM 35.7833 -115.1294 228° Southwest 372 428 20,600 3,480 Climbing Los Angeles Center
11:56AM 35.7042 -115.2550 232° Southwest 383 441 24,600 3,480 Climbing Los Angeles Center
11:57AM 35.6367 -115.3519 229° Southwest 374 430 27,900 1,620 Climbing Los Angeles Center
11:58AM 35.5664 -115.4450 227° Southwest 370 426 28,000  Climbing Los Angeles Center
11:59AM 35.4947 -115.5425 228° Southwest 378 435 28,000  Level Los Angeles Center
12:00PM 35.4283 -115.6319 228° Southwest 382 440 28,000  Level Los Angeles Center
12:01PM 35.3417 -115.7469 227° Southwest 383 441 28,000  Level Los Angeles Center
12:02PM 35.2694 -115.8425 227° Southwest 383 441 28,000  Level Los Angeles Center
12:03PM 35.1964 -115.9378 227° Southwest 383 441 28,000  Level Los Angeles Center
12:04PM 35.1242 -116.0347 228° Southwest 384 442 28,000  Level Los Angeles Center
12:05PM 35.0514 -116.1317 227° Southwest 387 445 28,000  Level Los Angeles Center
12:06PM 34.9775 -116.2269 227° Southwest 386 444 28,000 -60 Level Los Angeles Center
12:07PM 34.8883 -116.3433 227° Southwest 390 449 27,900 -840 Descending Los Angeles Center
12:08PM 34.8144 -116.4394 227° Southwest 388 447 26,300 -1,800 Descending Los Angeles Center
12:09PM 34.7431 -116.5283 226° Southwest 371 427 24,300 -1,140 Descending Los Angeles Center
12:10PM 34.6742 -116.6114 225° Southwest 350 403 24,000 -1,680 Descending Los Angeles Center
12:11PM 34.6092 -116.6933 226° Southwest 340 391 20,900 -2,700 Descending Los Angeles Center
12:12PM 34.5372 -116.7808 225° Southwest 361 415 18,500 -2,040 Descending Los Angeles Center
12:13PM 34.4669 -116.8647 225° Southwest 357 411 16,800 -1,920 Descending Los Angeles Center
12:14PM 34.3878 -116.9619 225° Southwest 339 390 14,600 -1,920 Descending Los Angeles Center
12:15PM 34.3239 -117.0389 225° Southwest 326 375 12,900 -1,260 Descending Los Angeles Center
12:16PM 34.2633 -117.1117 225° Southwest 311 358 12,000 -1,200 Descending Los Angeles Center
12:17PM 34.2189 -117.1661 225° Southwest 292 336 10,500 -1,860 Descending Los Angeles Center
12:18PM 34.1503 -117.2506 226° Southwest 299 344 8,200 -1,200 Descending Los Angeles Center
12:19PM 34.0858 -117.3281 225° Southwest 270 311 8,000 -1,020 Descending Los Angeles Center
12:20PM 34.0358 -117.3767 219° Southwest 241 277 6,200 -1,860 Descending Los Angeles Center
12:22PM 34.0500 -117.4333 287° West 201 231 4,100 -1,440 Descending Southern California TRACON
12:23PM 34.0667 -117.4833 292° West 180 207 3,200 -1,140 Descending Southern California TRACON
12:24PM 34.0500 -117.5333 248° West 146 168 1,900 -1,080 Descending Southern California TRACON
12:25PM 34.0500 -117.5667 270° West 133 153 1,100 -840 Descending Southern California TRACON
12:27PM 34.0500 -117.6000 270° West  Level FlightAware Approximate